x

9441102 - Westport, Wa (wptw1) Weather Station

11:36 - Sun 26th Feb 2017 All times are PST. -8 hours from GMT.

  • Wind
    1mph, 2mph gusts
  • Sea Temp 48°f
  • Luft Temp 38°f
  • Sea Pressure 1008.2mb
  • 9441102 - Westport, Wa
  • 9441102 - Westport, Wa

More Historic Weather Station data

Upgrade to MSW Pro to gain access to the past 30 days of data for over 8000 Wavebouys and Weather Stations around the globe.

Join Pro

Comparision Forecast

View Surf forecast
   
So 02/26 11:36 1 2 mph 1008.2mb 48f 38f
11:30 1 2 mph 1008.2mb 48f 37f
11:24  -  1 mph 1008.2mb 47f 37f
11:18  -  2 mph 1008.1mb 47f 37f
11:12 2
mph
1008.1mb 47f 37f
11:06 2 5 mph 1008mb 47f 37f
11:00 3 5 mph 1008mb 47f 37f
10:36 6 7 mph 1007.8mb 47f 37f
10:30 7
mph
1007.9mb 47f 38f
10:24 5 6 mph 1008mb 47f 38f
10:18 2 3 mph 1008mb 47f 38f
10:12 2 3 mph 1008mb 47f 38f
10:06 2 3 mph 1008mb 47f 38f
10:00 3 5 mph 1007.9mb 47f 38f
9:36 5
mph
1008.1mb 47f 38f
9:30 5
mph
1008.2mb 47f 38f
9:24 3 5 mph 1008.3mb 47f 38f
9:18 3
mph
1008.3mb 47f 38f
9:12 2 3 mph 1008.2mb 47f 38f
9:06 3
mph
1008.1mb 47f 38f
9:00 3 5 mph 1007.9mb 47f 38f
8:36 3 5 mph 1007.8mb 47f 38f
8:30 5
mph
1007.7mb 47f 38f
8:24 5
mph
1007.7mb 47f 38f
8:18 5
mph
1007.6mb 47f 38f
8:12 5 6 mph 1007.5mb 47f 38f
8:06 6
mph
1007.5mb 47f 38f
8:00 5
mph
1007.6mb 47f 38f
7:36 6
mph
1007.5mb 47f 39f
7:30 6 7 mph 1007.5mb 47f 39f
7:24 6 9 mph 1007.4mb 47f 39f
7:18 7 9 mph 1007.3mb 47f 39f
7:12 6 7 mph 1007.3mb 47f 39f
7:06 6 8 mph 1007.2mb 47f 39f
7:00 6 7 mph 1007.1mb 47f 39f
6:36 7 10 mph 1006.8mb 47f 39f
6:30 5 6 mph 1006.8mb 47f 39f
6:24 5 6 mph 1006.7mb 47f 38f
6:18 5 6 mph 1006.8mb 47f 38f
6:12 5 6 mph 1006.7mb 47f 38f
6:06 6
mph
1006.6mb 47f 38f
6:00 5 6 mph 1006.5mb 47f 38f
5:36 6 7 mph 1006.5mb 47f 38f
5:30 6
mph
1006.4mb 47f 38f
5:24 6 8 mph 1006.4mb 47f 38f
5:18 6 7 mph 1006.4mb 47f 38f
5:12 3 6 mph 1006.3mb 47f 39f
5:06 6 7 mph 1006.2mb 47f 39f
5:00 6 8 mph 1006.2mb 47f 39f
4:36 7 10 mph 1005.9mb 47f 39f
4:30 6 9 mph 1005.9mb 47f 40f
4:24 7 9 mph 1005.9mb 47f 40f
4:18 7 9 mph 1005.9mb 47f 40f
4:12 6 9 mph 1005.8mb 47f 40f
4:06 8 9 mph 1005.8mb 47f 40f
4:00 7 11 mph 1005.7mb 47f 40f
3:36 10 15 mph 1005.5mb 47f 40f
3:30 10 16 mph 1005.5mb 47f 40f
3:24 11 16 mph 1005.5mb 47f 40f
3:18 11 16 mph 1005.4mb 47f 40f
3:12 11 15 mph 1005.3mb 47f 39f
3:06 13 15 mph 1005.2mb 47f 39f
3:00 11 14 mph 1005.1mb 47f 39f
2:36 8 14 mph 1004.9mb 47f 40f
2:30 11 13 mph 1004.9mb 47f 39f
2:24 8 14 mph 1004.8mb 47f 40f
2:18 11 14 mph 1004.8mb 48f 40f
2:12 9 11 mph 1004.7mb 48f 40f
2:06 9 13 mph 1004.7mb 48f 40f
2:00 9 13 mph 1004.6mb 48f 41f
1:36 9 13 mph 1004.7mb 48f 41f
1:30 10 13 mph 1004.7mb 48f 40f
1:24 9 11 mph 1004.7mb 48f 39f
1:18 9 14 mph 1004.6mb 48f 39f
1:12 10 14 mph 1004.6mb 48f 39f
1:06 10 13 mph 1004.6mb 48f 39f
1:00 9 11 mph 1004.6mb 48f 39f
12:36 6 7 mph 1004.7mb 48f 39f
12:30 6 9 mph 1004.7mb 48f 39f
12:24 8 10 mph 1004.7mb 48f 39f
12:18 5 7 mph 1004.7mb 48f 39f
12:12 3 5 mph 1004.6mb 48f 39f
12:06 3 8 mph 1004.6mb 48f 40f
12:00 5 7 mph 1004.6mb 48f 40f
11:36 3 5 mph 1004.5mb 48f 41f
11:30  -  7 mph 1004.5mb 48f 41f
11:24 2 7 mph 1004.4mb 48f 41f
11:18 3 6 mph 1004.3mb 48f 40f
11:12 3 5 mph 1004.3mb 48f 40f
11:06  -  3 mph 1004.3mb 47f 40f
11:00 2 3 mph 1004.3mb 47f 40f
10:36 5 6 mph 1004.1mb 47f 39f
10:30 6
mph
1004.1mb 47f 39f
10:24 5 6 mph 1004.1mb 47f 39f
10:18 5 6 mph 1004.1mb 47f 39f
10:12 3 5 mph 1004.1mb 47f 39f
10:06 5 6 mph 1004mb 47f 38f
10:00 3 6 mph 1004mb 47f 38f
9:36 3 5 mph 1003.9mb 47f 38f
9:30 5
mph
1003.9mb 47f 38f
9:24 3 6 mph 1003.9mb 47f 37f
9:18 5
mph
1003.9mb 47f 37f
9:12 5 6 mph 1003.9mb 47f 38f
9:06 3 5 mph 1003.9mb 47f 38f
9:00 3 5 mph 1003.9mb 47f 38f
8:36 2 7 mph 1003.9mb 47f 37f
8:30 6
mph
1003.8mb 47f 37f
8:24 6
mph
1003.8mb 47f 37f
8:18 1 3 mph 1003.8mb 47f 38f
8:12 3 6 mph 1003.8mb 47f 37f
8:06 1 3 mph 1003.8mb 47f 37f
8:00 5 6 mph 1003.8mb 47f 37f
7:36 5
mph
1003.6mb 47f 39f
7:30 3 5 mph 1003.6mb 47f 39f
7:24 3
mph
1003.6mb 47f 39f
7:18 2 3 mph 1003.6mb 47f 39f
7:12 2 5 mph 1003.6mb 47f 39f
7:06 5
mph
1003.7mb 47f 39f
7:00 2 3 mph 1003.7mb 47f 39f
6:36 5 6 mph 1003.7mb 47f 39f
6:30 3 6 mph 1003.8mb 47f 39f
6:24 3 7 mph 1003.8mb 47f 39f
6:18 7 8 mph 1003.8mb 47f 40f
6:12 6 9 mph 1003.8mb 47f 40f
6:06 8 15 mph 1003.8mb 47f 40f
6:00 13 15 mph 1003.9mb 47f 40f
5:36 14 17 mph 1003.9mb 47f 40f
5:30 15 18 mph 1004mb 47f 40f
5:24 14 17 mph 1004mb 47f 40f
5:18 17 21 mph 1003.9mb 47f 40f
5:12 15 22 mph 1004mb 47f 40f
5:06 9 15 mph 1004.1mb 47f 40f
5:00 3 7 mph 1004.1mb 47f 39f
4:36 13 22 mph 1004.7mb 47f 39f
4:30 16 24 mph 1004.8mb 47f 39f
4:24 18 23 mph 1005mb 47f 39f
4:18 16 23 mph 1005.1mb 47f 39f
4:12 17 26 mph 1005.3mb 47f 39f
4:06 20 25 mph 1005.4mb 47f 39f
4:00 15 23 mph 1005.6mb 47f 39f
3:36 16 22 mph 1006mb 47f 40f
3:30 17 23 mph 1006.1mb 47f 40f
3:24 16 21 mph 1006.3mb 47f 40f
3:18 17 23 mph 1006.5mb 47f 40f
3:12 17 23 mph 1006.6mb 47f 40f
3:06 16 22 mph 1006.8mb 48f 40f
3:00 18 23 mph 1007mb 48f 40f
2:36 20 24 mph 1007.7mb 48f 40f
2:30 18 23 mph 1007.9mb 48f 40f
2:24 18 23 mph 1008mb 48f 41f
2:18 16 21 mph 1008.1mb 48f 40f
2:12 16 24 mph 1008.4mb 48f 41f
2:06 22 24 mph 1008.5mb 48f 41f
2:00 17 21 mph 1008.6mb 48f 41f
1:36 22 26 mph 1009.2mb 48f 41f
1:30 22 28 mph 1009.3mb 48f 41f
1:24 16 22 mph 1009.4mb 48f 42f
1:18 15 20 mph 1009.6mb 48f 42f
1:12 18 24 mph 1009.7mb 48f 41f
1:06 16 20 mph 1009.8mb 48f 42f
1:00 11 16 mph 1010.1mb 48f 42f
12:36 17 24 mph 1010.7mb 48f 41f
12:30 13 15 mph 1010.8mb 48f 41f
12:24 13 14 mph 1010.9mb 48f 41f
12:18 13 14 mph 1011.1mb 48f 41f
12:12 11 14 mph 1011.3mb 48f 41f
12:06 14 17 mph 1011.4mb 48f 40f
12:00 17 21 mph 1011.6mb 48f 40f
Sa 02/25 11:54 18 23 mph 1011.7mb 48f 41f
11:48 21 26 mph 1011.9mb 48f 40f
11:36 13 15 mph 1012.1mb 48f 40f
11:30 14 23 mph 1012.4mb 48f 40f
11:24 20 23 mph 1012.5mb 48f 41f
11:18 20 22 mph 1012.6mb 48f 42f
11:12 20 22 mph 1012.7mb 48f 41f
11:06 17 23 mph 1012.9mb 48f 42f
11:00 18 23 mph 1013mb 48f 42f
10:54 22 25 mph 1013.2mb 48f 42f
10:48 20 23 mph 1013.3mb 47f 42f
10:36 18 24 mph 1013.6mb 47f 42f
10:30 15 20 mph 1013.6mb 47f 42f
10:24 15 18 mph 1013.7mb 47f 42f
10:18 15 18 mph 1013.9mb 47f 41f
10:12 13 22 mph 1014mb 47f 40f
10:06 20 24 mph 1014.2mb 47f 40f
10:00 16 20 mph 1014.3mb 47f 41f
9:54 18 24 mph 1014.4mb 47f 41f
9:48 25 29 mph 1014.5mb 47f 42f
9:36 20 23 mph 1014.7mb 47f 42f
9:30 17 22 mph 1014.8mb 47f 42f
9:24 18 23 mph 1015mb 47f 42f
9:18 18 24 mph 1015.1mb 48f 42f
9:12 21 25 mph 1015.2mb 48f 42f
9:06 22 25 mph 1015.3mb 48f 43f
9:00 21 23 mph 1015.4mb 47f 42f
8:54 18 23 mph 1015.5mb 47f 42f
8:48 17 22 mph 1015.6mb 48f 42f
8:36 10 16 mph 1015.8mb 48f 41f
8:30 14 18 mph 1015.9mb 48f 41f
8:24 13 21 mph 1016.1mb 48f 41f
8:18 22 31 mph 1016.2mb 48f 41f
8:12 20 31 mph 1016.3mb 48f 42f
8:06 23 28 mph 1016.3mb 48f 42f
8:00 20 22 mph 1016.4mb 48f 43f
7:36 24 30 mph 1016.9mb 48f 42f
7:30 26 30 mph 1017.1mb 48f 43f
7:24 22 23 mph 1017.2mb 48f 44f
7:18 22 23 mph 1017.2mb 48f 44f
7:12 15 20 mph 1017.3mb 48f 43f
7:06 14 17 mph 1017.4mb 48f 43f
7:00 14 17 mph 1017.5mb 48f 43f
6:54 16 18 mph 1017.7mb 48f 43f
6:48 13 17 mph 1017.9mb 48f 42f
6:36 11 15 mph 1018mb 47f 42f
6:30 11 14 mph 1018.1mb 47f 42f
6:24 11 14 mph 1018.2mb 47f 42f
6:18 10 14 mph 1018.3mb 47f 42f
6:12 13 15 mph 1018.3mb 47f 42f
6:06 10 14 mph 1018.4mb 47f 42f
6:00 9 13 mph 1018.5mb 47f 42f
5:54 11 14 mph 1018.7mb 47f 42f
5:48 11 14 mph 1018.8mb 47f 42f
5:36 10 14 mph 1019.1mb 47f 42f
5:30 10 13 mph 1019.1mb 47f 42f
5:24 10 14 mph 1019.3mb 47f 42f
5:18 10 14 mph 1019.4mb 47f 42f
5:12 11 14 mph 1019.5mb 47f 42f
5:06 11 13 mph 1019.6mb 47f 42f
5:00 11 14 mph 1019.7mb 47f 42f
4:54 11 14 mph 1019.8mb 47f 42f
4:48 13 15 mph 1020mb 47f 42f
4:36 13 15 mph 1020.2mb 47f 42f
4:30 11 13 mph 1020.3mb 47f 42f
4:24 11 15 mph 1020.5mb 47f 42f
4:18 13 14 mph 1020.6mb 47f 42f
4:12 10 14 mph 1020.7mb 47f 42f
4:06 11 14 mph 1020.7mb 47f 42f
4:00 10 14 mph 1020.8mb 48f 42f
3:54 11 14 mph 1020.9mb 48f 42f
3:48 10 14 mph 1020.9mb 48f 42f
3:36 11 13 mph 1021.2mb 48f 42f
3:30 8 9 mph 1021.2mb 48f 42f
3:24 5 7 mph 1021.3mb 48f 41f
3:18 6 8 mph 1021.4mb 48f 41f
3:12 5 7 mph 1021.5mb 48f 41f
3:06 5 7 mph 1021.5mb 48f 41f
3:00 5 6 mph 1021.5mb 48f 41f
2:54 5 6 mph 1021.7mb 48f 40f
2:48 5 9 mph 1021.8mb 48f 40f
2:36 3 8 mph 1021.9mb 48f 41f
2:30 9 20 mph 1022mb 48f 41f
2:24 15 21 mph 1022.1mb 48f 42f
2:18 9 13 mph 1022.3mb 48f 42f
2:12 9 11 mph 1022.4mb 48f 42f
2:06 9 11 mph 1022.4mb 48f 42f
2:00 10 13 mph 1022.5mb 48f 42f
1:54 8 10 mph 1022.6mb 48f 42f
1:48 7 9 mph 1022.6mb 48f 42f
1:36 9 11 mph 1022.9mb 48f 42f
1:30 8 10 mph 1023mb 48f 41f
1:24 8 10 mph 1023mb 48f 42f
1:18 7 9 mph 1023.1mb 48f 42f
1:12 8 10 mph 1023.2mb 48f 41f
1:06 7 9 mph 1023.2mb 48f 41f
1:00 8 9 mph 1023.3mb 48f 42f
12:54 7 9 mph 1023.4mb 48f 42f
12:48 7 9 mph 1023.5mb 48f 42f
12:36 7 9 mph 1023.5mb 48f 41f
12:30 7 9 mph 1023.7mb 48f 42f
12:24 7 8 mph 1023.9mb 48f 42f
12:18 6 7 mph 1023.9mb 48f 42f
12:12 6 8 mph 1023.9mb 48f 42f
12:06 6
mph
1024mb 48f 45f
12:00 5 6 mph 1024.1mb 48f 45f
11:54 5 6 mph 1024.1mb 48f 44f
11:48 3 6 mph 1024.1mb 48f 44f
11:36 3
mph
1024.2mb 48f 49f
11:30 3 5 mph 1024.2mb 48f 48f
11:24 3
mph
1024.2mb 48f 47f
11:18 2 5 mph 1024.2mb 48f 46f
11:12 1 2 mph 1024.2mb 48f 49f
11:06 3 7 mph 1024.2mb 48f 46f
11:00  -  3 mph 1024.3mb 48f 45f
10:54 1 6 mph 1024.3mb 48f 44f
10:48 3 6 mph 1024.4mb 48f 43f
10:36 5 7 mph 1024.5mb 47f 41f
10:30 5 7 mph 1024.5mb 47f 42f
10:24 3 7 mph 1024.6mb 47f 42f
10:18 5 7 mph 1024.7mb 47f 40f
10:12 5 6 mph 1024.8mb 47f 41f
10:06 5 7 mph 1024.9mb 47f 40f
10:00 6 7 mph 1024.9mb 47f 41f
9:54 6 7 mph 1025mb 47f 40f
9:48 6 8 mph 1025mb 47f 40f
9:36 6 8 mph 1025mb 47f 40f
9:30 6 8 mph 1025mb 47f 40f
9:24 6 7 mph 1025mb 47f 39f
9:18 6
mph
1025mb 47f 39f
9:12 5 6 mph 1025mb 47f 39f
9:06 6
mph
1025mb 47f 39f
9:00 5 7 mph 1025mb 47f 38f
8:54 5 6 mph 1025mb 46f 38f
8:48 6 7 mph 1025mb 46f 38f
8:36 6 7 mph 1025mb 47f 37f
8:30 6 7 mph 1024.9mb 47f 37f
8:24 5 6 mph 1025mb 47f 37f
8:18 6
mph
1025mb 47f 36f
8:12 6 8 mph 1024.9mb 47f 36f
8:06 8
mph
1024.9mb 47f 36f
8:00 8 9 mph 1024.9mb 47f 36f
7:54 7 9 mph 1024.8mb 47f 36f
7:48 8 9 mph 1024.7mb 47f 35f
7:36 7 8 mph 1024.8mb 47f 35f
7:30 7
mph
1024.8mb 47f 35f
7:24 6 7 mph 1024.8mb 47f 35f
7:18 6 7 mph 1024.7mb 47f 34f
7:12 3 5 mph 1024.7mb 47f 33f
7:06 5 6 mph 1024.7mb 47f 34f
7:00 6
mph
1024.7mb 47f 34f
6:54 5 6 mph 1024.7mb 47f 33f
6:48 6 8 mph 1024.6mb 47f 33f
6:36 7 8 mph 1024.6mb 47f 33f
6:30 9 10 mph 1024.5mb 47f 33f
6:24 9 10 mph 1024.5mb 47f 33f
6:18 9 10 mph 1024.5mb 47f 33f
6:12 9 10 mph 1024.4mb 47f 33f
6:06 9 10 mph 1024.5mb 47f 33f
6:00 9 10 mph 1024.6mb 47f 34f
5:54 9 11 mph 1024.7mb 47f 34f
5:48 9 10 mph 1024.7mb 47f 34f
5:36 9 11 mph 1024.7mb 47f 34f
5:30 10 13 mph 1024.6mb 47f 33f
5:24 10 11 mph 1024.7mb 47f 33f
5:18 10 11 mph 1024.7mb 47f 34f
5:12 10 11 mph 1024.8mb 47f 34f
5:06 9 10 mph 1024.8mb 47f 34f
5:00 8 13 mph 1024.7mb 47f 34f
4:54 10 13 mph 1024.7mb 47f 34f
4:48 10 14 mph 1024.7mb 47f 34f
4:36 10 13 mph 1024.7mb 47f 34f
4:30 10 13 mph 1024.7mb 47f 34f
4:24 9 11 mph 1024.7mb 47f 34f
4:18 10 11 mph 1024.6mb 47f 35f
4:12 9 11 mph 1024.6mb 47f 35f
4:06 10 13 mph 1024.6mb 47f 35f
4:00 10 13 mph 1024.6mb 47f 35f
3:54 10 11 mph 1024.6mb 47f 35f
3:48 9 13 mph 1024.6mb 47f 35f
3:36 10 13 mph 1024.6mb 47f 35f
3:30 8 14 mph 1024.5mb 46f 35f
3:24 10 13 mph 1024.5mb 46f 35f
3:18 10 13 mph 1024.6mb 46f 35f
3:12 9 11 mph 1024.5mb 46f 35f
3:06 9 10 mph 1024.5mb 46f 35f
3:00 8 9 mph 1024.5mb 47f 35f
2:54 8 10 mph 1024.5mb 47f 35f
2:48 8 9 mph 1024.5mb 47f 35f
2:36 8 10 mph 1024.5mb 47f 35f
2:30 8 10 mph 1024.5mb 47f 35f
2:24 10 11 mph 1024.6mb 47f 35f
2:18 9 11 mph 1024.6mb 47f 35f
2:12 9 10 mph 1024.6mb 47f 36f
2:06 9 11 mph 1024.5mb 47f 36f
2:00 9 11 mph 1024.5mb 48f 36f
1:54 10 11 mph 1024.5mb 47f 36f
1:48 9 11 mph 1024.5mb 47f 36f
1:36 9 13 mph 1024.5mb 48f 36f
1:30 9 10 mph 1024.5mb 48f 36f
1:24 8 11 mph 1024.5mb 48f 37f
1:18 7 11 mph 1024.5mb 48f 36f
1:12 8 11 mph 1024.5mb 48f 36f
1:06 9 13 mph 1024.4mb 48f 37f
1:00 10 13 mph 1024.4mb 48f 36f
12:54 10 13 mph 1024.4mb 48f 36f
12:48 9 10 mph 1024.3mb 48f 36f
12:36 10 13 mph 1024.2mb 48f 36f
12:30 9 14 mph 1024.3mb 48f 36f
12:24 10 13 mph 1024.2mb 48f 36f
12:18 9 11 mph 1024.1mb 48f 36f
12:12 8 9 mph 1024.1mb 48f 36f
12:06 8 9 mph 1024.2mb 48f 36f
12:00 9
mph
1024.1mb 48f 36f
Fr 02/24 11:54 8 9 mph 1024mb 49f 36f
11:48 8 10 mph 1024mb 49f 36f
11:36 8 9 mph 1024mb 49f 36f
11:30 8 9 mph 1024mb 49f 36f
11:24 8 10 mph 1023.9mb 49f 36f
11:18 9 10 mph 1023.9mb 48f 36f
11:12 8 9 mph 1023.9mb 48f 36f
11:06 7 9 mph 1023.9mb 48f 36f
11:00 7 8 mph 1023.9mb 48f 36f
10:54 7 8 mph 1024mb 48f 36f
10:48 6 9 mph 1024mb 48f 36f
10:36 8 10 mph 1024mb 48f 36f
10:30 6 9 mph 1024mb 48f 36f
10:24 8 11 mph 1024mb 48f 36f
10:18 7 11 mph 1024mb 47f 37f
10:12 9 11 mph 1024mb 47f 37f
10:06 10 14 mph 1023.9mb 47f 37f
10:00 10 13 mph 1023.8mb 47f 37f
9:54 10 13 mph 1023.9mb 47f 37f
9:48 10 14 mph 1023.8mb 47f 37f
9:36 13 15 mph 1023.5mb 47f 37f
9:30 11 14 mph 1023.5mb 47f 37f
9:24 13 15 mph 1023.5mb 47f 37f
9:18 11 16 mph 1023.5mb 47f 37f
9:12 14 16 mph 1023.5mb 47f 37f
9:06 14 17 mph 1023.5mb 47f 38f
9:00 14 16 mph 1023.5mb 47f 38f
8:54 11 15 mph 1023.4mb 47f 38f
8:48 13 16 mph 1023.4mb 47f 38f
8:36 13 16 mph 1023.2mb 47f 38f
8:30 14 17 mph 1023.1mb 47f 38f
8:24 11 15 mph 1023mb 47f 38f
8:18 14 16 mph 1022.9mb 47f 38f
8:12 13 16 mph 1022.9mb 47f 38f
8:06 11 15 mph 1022.9mb 47f 39f
8:00 13 15 mph 1022.8mb 47f 39f
7:54 11 16 mph 1022.7mb 47f 39f
7:48 9 13 mph 1022.6mb 47f 40f
7:36 7 10 mph 1022.3mb 47f 39f
7:30 7 9 mph 1022.2mb 47f 39f
7:24 6 9 mph 1022.1mb 47f 39f
7:18 5 7 mph 1022mb 47f 39f
7:12 5 6 mph 1021.9mb 47f 39f
7:06 6 8 mph 1021.9mb 47f 39f
7:00 7 8 mph 1021.9mb 47f 39f
6:54 7 8 mph 1021.8mb 47f 39f
6:48 7 9 mph 1021.8mb 47f 39f
6:36 10 11 mph 1021.5mb 47f 40f
6:30 8 10 mph 1021.4mb 47f 40f
6:24 8 13 mph 1021.4mb 47f 40f
6:18 8 13 mph 1021.5mb 47f 40f
6:12 10 13 mph 1021.5mb 47f 40f
6:06 9 14 mph 1021.4mb 47f 41f
6:00 13 16 mph 1021.3mb 47f 41f
5:54 11 14 mph 1021.2mb 47f 41f
5:48 9 13 mph 1021.2mb 47f 40f
5:36 10 13 mph 1021.2mb 47f 40f
5:30 7 9 mph 1021.1mb 47f 40f
5:24 6 9 mph 1021.1mb 47f 40f
5:18 7 9 mph 1021mb 47f 40f
5:12 6 11 mph 1020.8mb 47f 40f
5:06 9 13 mph 1020.9mb 47f 40f
5:00 11 14 mph 1020.9mb 47f 40f
4:54 8 11 mph 1020.8mb 47f 41f
4:48 10 13 mph 1020.7mb 47f 41f
4:36 10 13 mph 1020.7mb 47f 41f
4:30 13 14 mph 1020.7mb 47f 41f
4:24 10 15 mph 1020.8mb 48f 42f
4:18 9 13 mph 1020.8mb 48f 41f
4:12 7 8 mph 1020.7mb 48f 40f
4:06 6 10 mph 1020.7mb 48f 40f
4:00 11 15 mph 1020.6mb 48f 40f
3:54 13 15 mph 1020.7mb 48f 40f
3:48 10 14 mph 1020.7mb 48f 40f
3:36 9 11 mph 1020.6mb 48f 41f
3:30 8 11 mph 1020.6mb 48f 42f
3:24 6 10 mph 1020.6mb 48f 41f
3:18 3 5 mph 1020.6mb 48f 40f
3:12 3 6 mph 1020.5mb 48f 40f
3:06 7 9 mph 1020.4mb 48f 40f
3:00 6 10 mph 1020.4mb 48f 40f
2:54 8 11 mph 1020.4mb 48f 41f
2:48 5 9 mph 1020.4mb 48f 42f
2:36 5 8 mph 1020.3mb 48f 41f
2:30 6 13 mph 1020.3mb 48f 40f
2:24 9 13 mph 1020.3mb 48f 39f
2:18 7 9 mph 1020.3mb 48f 39f
2:12 7 13 mph 1020.4mb 48f 39f
2:06 9 13 mph 1020.4mb 48f 40f
2:00 8 10 mph 1020.4mb 48f 40f
1:54 7 10 mph 1020.4mb 48f 40f
1:48 10 13 mph 1020.4mb 48f 40f
1:36 7 11 mph 1020.4mb 48f 40f
1:30 8 11 mph 1020.5mb 48f 40f
1:24 8 10 mph 1020.5mb 48f 40f
1:18 9 13 mph 1020.4mb 48f 39f
1:12 8 11 mph 1020.5mb 48f 40f
1:06 6 10 mph 1020.5mb 48f 40f
1:00 9 14 mph 1020.5mb 48f 39f
12:54 8 13 mph 1020.5mb 48f 39f
12:48 8 11 mph 1020.5mb 48f 39f
12:36 9 14 mph 1020.5mb 48f 39f
12:30 11 16 mph 1020.5mb 48f 38f
12:24 9 14 mph 1020.5mb 49f 39f
12:18 8 10 mph 1020.5mb 49f 38f
12:12 10 15 mph 1020.5mb 49f 38f
12:06 10 14 mph 1020.5mb 49f 38f
12:00 10 14 mph 1020.5mb 49f 38f
11:54 8 13 mph 1020.5mb 49f 38f
11:48 11 15 mph 1020.5mb 49f 38f
11:36 10 14 mph 1020.4mb 49f 38f
11:30 11 15 mph 1020.4mb 49f 38f
11:24 8 13 mph - - 38f
11:18 10 13 mph 1020.3mb 49f 37f
11:12 9 13 mph 1020.3mb 49f 38f
11:06 9 13 mph 1020.3mb 49f 38f
11:00 8 14 mph 1020.3mb 49f 38f
10:54 11 15 mph 1020.3mb 49f 37f
10:48 11 15 mph 1020.3mb 49f 37f
10:36 9 14 mph 1020.3mb 49f 37f
10:30 11 16 mph 1020.3mb 49f 37f
10:24 8 14 mph 1020.2mb 49f 37f
10:18 11 15 mph 1020.2mb 49f 37f
10:12 7 14 mph 1020.2mb 49f 37f
10:06 11 15 mph 1020.1mb 48f 36f
10:00 11 15 mph 1020.1mb 48f 36f
9:54 9 11 mph 1020mb 48f 37f
9:48 6 14 mph 1020mb 48f 37f
9:36 9 13 mph 1019.9mb 48f 36f
9:30 9 11 mph 1019.9mb 48f 36f
9:24 9 10 mph 1019.9mb 48f 35f
9:18 6 9 mph 1019.9mb 48f 35f
9:12 9 13 mph 1019.9mb 48f 35f
9:06 9 14 mph 1019.9mb 48f 35f
9:00 9 15 mph 1019.8mb 48f 35f
8:54 8 13 mph 1019.8mb 48f 35f
8:48 8 13 mph 1019.8mb 48f 35f
8:36 9 15 mph 1019.7mb 48f 35f
8:30 9 13 mph 1019.8mb 48f 35f
8:24 8 11 mph 1019.8mb 48f 35f
8:18 9 13 mph 1019.8mb 48f 35f
8:12 8 11 mph 1019.8mb 48f 34f
8:06 8 11 mph 1019.8mb 48f 34f
8:00 8 11 mph 1019.8mb 48f 34f
7:54 9 14 mph 1019.8mb 48f 34f
7:48 9 11 mph 1019.8mb 48f 34f
7:36 8 11 mph 1019.8mb 47f 33f
7:30 8 10 mph 1019.8mb 47f 33f
7:24 7 10 mph 1019.8mb 47f 33f
7:18 6 8 mph - - 33f
7:12 5 7 mph 1019.8mb 47f 33f
7:06 3 7 mph 1019.8mb 47f 33f
7:00 6 8 mph 1019.9mb 48f 33f
6:54 6 8 mph 1019.9mb 48f 34f
6:48 7 9 mph 1020mb 48f 34f
6:36 6 9 mph 1019.9mb 48f 34f
6:30 7 9 mph 1019.9mb 48f 34f
6:24 6 10 mph 1019.9mb 48f 34f
6:18 7 10 mph 1020mb 48f 34f
6:12 7 10 mph 1020mb 48f 34f
6:06 8 11 mph 1020mb 48f 35f
6:00 7 10 mph 1020mb 48f 35f
5:54 9 13 mph 1020mb 48f 36f
5:48 6 14 mph 1019.9mb 48f 37f
5:36 15 20 mph 1019.9mb 48f 37f
5:30 16 21 mph 1020mb 48f 37f
5:24 17 21 mph 1020.1mb 48f 37f
5:18 17 20 mph 1020mb 48f 37f
5:12 6 7 mph 1019.8mb 48f 36f
5:06 6 7 mph 1019.8mb 48f 37f
5:00 6 8 mph 1019.9mb 48f 37f
4:54 7 8 mph 1020mb 48f 37f
4:48 7 9 mph 1020.1mb 48f 37f
4:36 6 9 mph 1020.1mb 48f 37f
4:30 7 9 mph 1020.2mb 48f 37f
4:24 8 10 mph 1020.2mb 48f 37f
4:18 9 11 mph 1020.3mb 48f 37f
4:12 7 9 mph 1020.3mb 48f 38f
4:06 6
mph
1020.3mb 48f 39f
4:00 6
mph
1020.3mb 48f 39f
3:54 5
mph
1020.3mb 48f 39f
3:48 3 6 mph 1020.4mb 48f 39f
3:36 5 8 mph 1020.4mb 48f 40f
3:30 7 9 mph 1020.4mb 48f 39f
3:24 7 9 mph 1020.5mb 48f 39f
3:18 8 11 mph 1020.5mb 48f 38f
3:12 9 13 mph 1020.5mb 48f 38f
3:06 11 13 mph 1020.6mb 48f 38f
3:00 10 11 mph 1020.6mb 48f 38f
2:54 10 14 mph 1020.7mb 48f 38f
2:48 10 13 mph 1020.8mb 48f 38f
2:36 15 20 mph 1020.8mb 48f 38f
2:30 17 21 mph 1020.8mb 48f 38f
2:24 20 21 mph 1020.9mb 48f 38f
2:18 20 22 mph 1020.9mb 49f 38f
2:12 22 25 mph 1020.9mb 49f 39f
2:06 9 10 mph 1020.9mb 48f 41f
2:00 9 11 mph 1020.9mb 48f 41f
1:54 10 14 mph 1021mb 48f 41f
1:48 9 11 mph 1021.1mb 48f 41f
1:36 3 6 mph 1021.1mb 49f 40f
1:30 5 6 mph 1021.1mb 49f 39f
1:24 5 6 mph 1021.2mb 49f 39f
1:18 6 7 mph 1021.2mb 48f 38f
1:12 7
mph
1021.2mb 48f 38f
1:06 6 7 mph 1021.3mb 49f 38f
1:00 6 7 mph 1021.3mb 49f 38f
12:54 7
mph
1021.4mb 48f 38f
12:48 7 8 mph 1021.5mb 48f 38f
12:36 6 7 mph 1021.6mb 49f 38f
12:30 6 7 mph 1021.7mb 49f 37f
12:24 6 7 mph 1021.6mb 49f 37f
12:18 6 8 mph 1021.6mb 49f 37f
12:12 7 8 mph 1021.7mb 49f 37f
12:06 6
mph
1021.8mb 49f 38f
12:00 6
mph
1021.9mb 49f 39f
Do 02/23 11:54 6 7 mph 1021.9mb 49f 38f
11:48 5 6 mph 1022mb 49f 39f
11:36 1 2 mph 1022mb 49f 39f
11:30 1 3 mph 1022.1mb 49f 39f
11:24 1 2 mph 1022.2mb 49f 39f
11:18  -  2 mph 1022.2mb 49f 40f
11:12 1 2 mph 1022.3mb 49f 40f
11:06 2
mph
1022.3mb 49f 40f
11:00 2 5 mph 1022.3mb 49f 39f
10:54 3 5 mph 1022.3mb 49f 39f
10:48 2 6 mph 1022.3mb 49f 39f
10:36 7 10 mph 1022.4mb 49f 39f
10:30 7 16 mph 1022.5mb 49f 39f
10:24 10 14 mph 1022.6mb 49f 39f
10:18 7 21 mph 1022.5mb 49f 39f
10:12 21 23 mph 1022.5mb 49f 40f
10:06 15 20 mph 1022.3mb 49f 41f
10:00 22 25 mph 1022.2mb 48f 41f
9:54 14 17 mph 1022.3mb 48f 42f
9:48 5 7 mph 1022.3mb 48f 42f
9:36 7 10 mph 1022.4mb 48f 42f
9:30 8 10 mph 1022.4mb 48f 42f
9:24 7 11 mph 1022.4mb 48f 42f
9:18 9 13 mph 1022.4mb 48f 42f
9:12 10 11 mph 1022.5mb 48f 42f
9:06 10 13 mph 1022.5mb 48f 42f
9:00 8 10 mph 1022.5mb 48f 42f
8:36 8 11 mph 1022.5mb 48f 42f
8:30 8 10 mph 1022.6mb 48f 42f
8:24 8 11 mph 1022.6mb 48f 42f
8:18 9 10 mph 1022.6mb 48f 42f
8:12 9 13 mph 1022.6mb 48f 42f
8:06 10 13 mph 1022.6mb 48f 42f
8:00 11 14 mph 1022.6mb 48f 42f
7:54 11 14 mph 1022.6mb 48f 42f
7:48 11 14 mph 1022.6mb 48f 42f
7:36 11 15 mph 1022.7mb 48f 42f
7:30 14 17 mph 1022.7mb 48f 42f
7:24 14 16 mph 1022.8mb 48f 42f
7:18 14 17 mph 1022.8mb 48f 42f
7:12 13 15 mph 1022.8mb 48f 42f
7:06 11 16 mph 1022.8mb 48f 43f
7:00 15 16 mph 1022.8mb 48f 42f
6:54 14 16 mph 1022.9mb 48f 43f
6:48 14 16 mph 1022.9mb 48f 43f
6:36 15 17 mph 1022.9mb 48f 43f
6:30 14 15 mph 1023mb 48f 43f
6:24 14 16 mph 1023mb 48f 43f
6:18 14 16 mph 1023mb 48f 43f
6:12 13 15 mph 1023mb 48f 43f
6:06 15 16 mph 1023mb 48f 43f
6:00 11 15 mph 1023mb 48f 43f
5:54 10 14 mph 1023mb 48f 43f
5:48 13 17 mph 1023mb 48f 43f
5:36 15 16 mph 1023.1mb 48f 43f
5:30 15 17 mph 1023mb 48f 43f
5:24 13 15 mph 1023.1mb 48f 44f
5:18 13 15 mph 1023.1mb 47f 44f
5:12 13 16 mph 1023.1mb 47f 44f
5:06 11 14 mph 1023.1mb 47f 44f
5:00 10 15 mph 1023mb 47f 44f
4:54 10 13 mph 1023mb 47f 44f
4:48 10 14 mph 1023mb 47f 44f
4:36 10 13 mph 1023.1mb 47f 44f
4:30 10 13 mph 1023.1mb 47f 44f
4:24 10 13 mph 1023mb 47f 44f
4:18 8 11 mph 1023mb 47f 44f
4:12 9 11 mph 1023mb 47f 44f
4:06 8 11 mph 1023mb 47f 43f
4:00 10 13 mph 1023.1mb 47f 44f
3:54 11 14 mph 1023.1mb 47f 44f
3:48 11 15 mph 1023.2mb 47f 44f
3:36 9 11 mph 1023.3mb 48f 43f
3:30 11 13 mph 1023.4mb 48f 43f
3:24 8 13 mph 1023.4mb 48f 43f
3:18 10 13 mph 1023.5mb 48f 42f
3:12 10 13 mph 1023.5mb 48f 43f
3:06 11 14 mph 1023.6mb 48f 42f
3:00 9 11 mph 1023.6mb 48f 42f
2:54 10 11 mph 1023.6mb 48f 42f
2:48 10 11 mph 1023.7mb 48f 42f
2:36 8 11 mph 1023.8mb 48f 43f
2:30 9 11 mph 1023.8mb 48f 43f
2:24 6 9 mph 1023.8mb 48f 43f
2:18 8 10 mph 1023.9mb 48f 42f
2:12 9 11 mph 1023.9mb 48f 42f
2:06 8 10 mph 1023.9mb 48f 43f
2:00 8 11 mph 1024mb 48f 43f
1:54 8 10 mph 1024mb 48f 42f
1:48 7 10 mph 1024.1mb 48f 44f
1:36 8 10 mph 1024.1mb 48f 43f
1:30 8 11 mph 1024.1mb 48f 42f
1:24 7 9 mph 1024.2mb 48f 42f
1:18 8 11 mph 1024.3mb 48f 43f
1:12 7 11 mph 1024.3mb 48f 42f
1:06 7 9 mph 1024.4mb 48f 42f
1:00 7 9 mph 1024.4mb 48f 42f
12:54 7 9 mph 1024.5mb 49f 42f
12:48 8 9 mph 1024.6mb 49f 42f
12:36 7 10 mph 1024.7mb 49f 43f
12:30 8 10 mph 1024.7mb 49f 42f
12:24 6 8 mph 1024.7mb 49f 42f
12:18 8 10 mph 1024.7mb 49f 42f
12:12 6 8 mph 1024.7mb 49f 43f
12:06 5 8 mph 1024.8mb 49f 42f
12:00 6 9 mph 1024.8mb 49f 43f
11:54 3 6 mph 1024.9mb 49f 44f
11:48 2 5 mph 1025mb 49f 44f
11:36 2 5 mph 1025mb 49f 48f
11:30 3 5 mph 1025.1mb 49f 47f
11:24 1 3 mph 1025.1mb 49f 47f
11:18  -  5 mph 1025.1mb 49f 45f
11:12 3 5 mph 1025.1mb 49f 44f
11:06  -  5 mph 1025.1mb 49f 41f
11:00 3 6 mph 1025.1mb 49f 42f
10:54 5 7 mph 1025.1mb 49f 42f
10:48 3 6 mph 1025.1mb 49f 41f
10:36 6 7 mph 1025.1mb 49f 39f
10:30 6 7 mph 1025.1mb 49f 38f
10:24 6 7 mph 1025.1mb 49f 38f
10:18 6 7 mph 1025.1mb 49f 39f
10:12 6 8 mph 1025.1mb 49f 39f
10:06 6 8 mph 1025.1mb 49f 40f
10:00 5 7 mph 1025.1mb 49f 41f
9:54 5 7 mph 1025mb 49f 41f
9:48 3 6 mph 1025mb 49f 42f
9:36 1 3 mph 1024.9mb 49f 40f
9:30 2 3 mph 1024.9mb 49f 40f
9:24 2 3 mph 1024.8mb 49f 40f
9:18 1 3 mph 1024.8mb 49f 39f
9:12 2 3 mph 1024.8mb 49f 38f
9:06 2 3 mph 1024.7mb 49f 38f
9:00 2 5 mph 1024.7mb 49f 38f